KPGV

Pitt-Greenville Airport

Greenville, North Carolina, USA
METAR KPGV 100710Z AUTO 01013G19KT 10SM RA OVC008 03/03 A2992 RMK AO2
Observed Flight Rules
Dec-10 @ 07:10 UTC (14 minutes ago) Instrument Flight Rules
Wind Visibility Clouds Conditions
10° at 13 knots
 Gusting to 19 knots
10 miles
  • Overcast at 800' AGL
  • Rain
Temperatures Readings
Current 3°C / 37°F
Dewpoint 3°C / 37°F
Humidity 100%
Altimeter 29.92" Hg
Pressure 1013 hPa
Elevation 8
METAR KPGV 100710Z AUTO 01013G19KT 10SM RA OVC008 03/03 A2992 RMK AO2
Observed Flight Rules
Dec-10 @ 07:10 UTC
(14 minutes ago)
IFR
Wind Visibility
10° at 13 knots
 Gusting to 19 knots
10 miles
Clouds
  • Overcast at 800' AGL
Conditions
  • Rain
Temperature Dewpoint
3°C / 37°F 3°C / 37°F
Humidity Altimeter Pressure
100% 29.92" Hg 1013 hPa